Time;durP1;ratioP1;P1;durP2;ratioP2;P2;SDS_P1;SDS_P2;PMS_P1;PMS_P2;Temp;Humidity;BMP_temperature;BMP_pressure;BME280_temperature;BME280_humidity;BME280_pressure;Samples;Min_cycle;Max_cycle;Signal;HPM_P1;HPM_P2
2023/01/14 00:01:51;;;;;;;51.22;6.25;;;7.10;99.90;;;;;;4978617;23;20146;-82
2023/01/14 00:04:32;;;;;;;44.72;5.97;;;7.10;99.90;;;;;;4899014;29;20044;-82
2023/01/14 00:06:57;;;;;;;56.25;7.38;;;7.00;99.90;;;;;;4883515;29;20134;-82
2023/01/14 00:09:26;;;;;;;39.58;5.20;;;7.10;99.90;;;;;;4968901;28;20055;-82
2023/01/14 00:11:54;;;;;;;36.97;5.45;;;7.00;99.90;;;;;;4976597;28;20067;-82
2023/01/14 00:14:22;;;;;;;67.97;8.15;;;7.00;99.90;;;;;;4977638;28;20066;-82
2023/01/14 00:16:50;;;;;;;33.38;5.72;;;7.00;99.90;;;;;;4977502;28;20050;-82
2023/01/14 00:19:19;;;;;;;40.92;6.38;;;7.00;99.90;;;;;;4977359;28;20494;-82
2023/01/14 00:21:45;;;;;;;38.70;5.30;;;6.90;99.90;;;;;;4977129;28;20376;-82
2023/01/14 00:24:12;;;;;;;49.67;7.25;;;6.90;99.90;;;;;;4977362;28;20046;-82
2023/01/14 00:26:41;;;;;;;41.35;6.40;;;6.90;99.90;;;;;;4991569;23;20388;-82
2023/01/14 00:29:09;;;;;;;41.95;6.38;;;7.00;99.90;;;;;;4960150;28;20121;-82
2023/01/14 00:31:34;;;;;;;50.70;5.78;;;6.80;99.90;;;;;;4965519;23;20051;-82
2023/01/14 00:34:00;;;;;;;47.88;8.77;;;7.00;99.90;;;;;;4959614;28;20130;-82
2023/01/14 00:36:27;;;;;;;35.42;5.22;;;6.90;99.90;;;;;;4959691;28;20189;-82
2023/01/14 00:38:53;;;;;;;43.72;6.68;;;6.90;99.90;;;;;;4966178;28;20109;-82
2023/01/14 00:41:21;;;;;;;44.58;6.82;;;6.90;99.90;;;;;;4976181;28;20065;-82
2023/01/14 00:46:40;;;;;;;34.78;5.63;;;6.90;99.90;;;;;;4981296;23;20098;-82
2023/01/14 00:49:08;;;;;;;28.58;5.07;;;6.80;99.90;;;;;;4950319;28;20055;-82
2023/01/14 00:51:34;;;;;;;34.72;5.25;;;6.70;99.90;;;;;;4959299;28;20058;-82
2023/01/14 00:54:01;;;;;;;42.80;7.43;;;6.80;99.90;;;;;;4959434;28;20046;-82
2023/01/14 00:56:27;;;;;;;38.33;6.57;;;6.70;99.90;;;;;;4976866;28;20061;-82
2023/01/14 00:58:53;;;;;;;34.95;5.50;;;6.70;99.90;;;;;;4959340;28;20125;-82
2023/01/14 01:01:21;;;;;;;26.23;4.72;;;6.70;99.90;;;;;;4976085;28;20133;-82
2023/01/14 01:03:50;;;;;;;39.25;5.43;;;6.70;99.90;;;;;;4976474;28;20105;-82
2023/01/14 01:06:18;;;;;;;40.95;5.43;;;6.50;99.90;;;;;;4976573;28;20495;-82
2023/01/14 01:08:49;;;;;;;33.22;4.93;;;6.60;99.90;;;;;;4976275;28;20481;-82
2023/01/14 01:11:18;;;;;;;31.38;5.10;;;6.60;99.90;;;;;;4976513;28;20525;-82
2023/01/14 01:13:43;;;;;;;33.85;6.07;;;6.60;99.90;;;;;;4976020;28;20039;-82
2023/01/14 01:16:13;;;;;;;38.47;4.72;;;6.60;99.90;;;;;;4976988;28;20534;-82
2023/01/14 01:18:38;;;;;;;35.95;5.30;;;6.70;99.90;;;;;;4976346;28;20050;-82
2023/01/14 01:21:12;;;;;;;30.30;4.68;;;6.60;99.90;;;;;;4976272;28;20117;-82
2023/01/14 01:23:44;;;;;;;38.45;5.65;;;6.70;99.90;;;;;;4976240;28;20042;-81
2023/01/14 01:26:25;;;;;;;37.40;4.82;;;6.60;99.90;;;;;;4976270;28;20042;-82
2023/01/14 01:29:06;;;;;;;34.30;6.88;;;6.70;99.90;;;;;;4975274;28;20043;-81
2023/01/14 01:31:32;;;;;;;35.58;5.60;;;6.70;99.90;;;;;;4958920;28;20057;-82
2023/01/14 01:33:58;;;;;;;37.97;6.90;;;6.70;99.90;;;;;;4976067;28;20046;-82
2023/01/14 01:36:27;;;;;;;36.75;6.47;;;6.60;99.90;;;;;;4958124;28;20065;-82
2023/01/14 01:38:53;;;;;;;46.35;5.90;;;6.70;99.90;;;;;;4958382;28;20455;-82
2023/01/14 01:41:26;;;;;;;46.80;6.45;;;6.60;99.90;;;;;;4975998;28;20499;-82
2023/01/14 01:44:12;;;;;;;46.33;5.30;;;6.70;99.90;;;;;;4958652;28;20058;-82
2023/01/14 01:46:41;;;;;;;52.97;8.90;;;6.70;99.90;;;;;;4975833;28;20046;-82
2023/01/14 01:49:17;;;;;;;62.47;7.88;;;6.70;99.90;;;;;;4975598;28;20077;-82
2023/01/14 01:51:53;;;;;;;56.95;6.30;;;6.70;99.90;;;;;;4975701;28;20051;-82
2023/01/14 01:54:22;;;;;;;33.63;4.70;;;6.60;99.90;;;;;;4975814;28;20039;-82
2023/01/14 01:56:49;;;;;;;46.33;6.40;;;6.70;99.90;;;;;;4958520;28;20105;-82
2023/01/14 01:59:19;;;;;;;39.50;7.45;;;6.70;99.90;;;;;;4975528;28;20035;-82
2023/01/14 02:01:45;;;;;;;55.83;6.97;;;6.60;99.90;;;;;;4958587;28;20121;-81
2023/01/14 02:04:12;;;;;;;58.88;7.10;;;6.60;99.90;;;;;;4975348;28;20047;-81
2023/01/14 02:06:40;;;;;;;42.65;5.13;;;6.70;99.90;;;;;;4958102;28;20134;-81
2023/01/14 02:09:06;;;;;;;46.15;6.95;;;6.60;99.90;;;;;;4975437;28;20073;-82
2023/01/14 02:12:06;;;;;;;37.65;6.47;;;6.50;99.90;;;;;;4958409;28;20058;-82
2023/01/14 02:14:52;;;;;;;42.17;6.07;;;6.50;99.90;;;;;;4958699;28;20478;-82
2023/01/14 02:17:52;;;;;;;41.30;5.88;;;6.50;99.90;;;;;;4957926;28;20490;-81
2023/01/14 02:20:34;;;;;;;50.30;7.60;;;6.50;99.90;;;;;;4975903;28;20086;-81
2023/01/14 02:23:11;;;;;;;42.42;7.25;;;6.50;99.90;;;;;;4975282;28;20043;-81
2023/01/14 02:26:14;;;;;;;44.17;6.38;;;6.40;99.90;;;;;;4975171;28;20043;-81
2023/01/14 02:28:46;;;;;;;42.90;5.97;;;6.50;99.90;;;;;;4975146;28;20107;-81
2023/01/14 02:31:42;;;;;;;35.72;6.25;;;6.40;99.90;;;;;;4957732;28;20051;-81
2023/01/14 02:34:31;;;;;;;44.53;7.80;;;6.40;99.90;;;;;;4975074;28;20062;-81
2023/01/14 02:37:04;;;;;;;38.75;5.28;;;6.30;99.90;;;;;;4975324;28;20446;-81
2023/01/14 02:39:42;;;;;;;36.42;5.90;;;6.30;99.90;;;;;;4957823;28;20113;-81
2023/01/14 02:48:02;;;;;;;52.03;6.55;;;6.20;99.90;;;;;;4947795;29;20125;-81
2023/01/14 02:50:30;;;;;;;46.50;8.60;;;6.20;99.90;;;;;;4954871;29;20066;-81
2023/01/14 02:52:56;;;;;;;38.10;5.28;;;6.20;99.90;;;;;;4955583;29;20124;-81
2023/01/14 02:55:33;;;;;;;55.83;7.40;;;6.20;99.90;;;;;;4938205;29;20179;-81
2023/01/14 02:58:18;;;;;;;35.17;6.40;;;6.20;99.90;;;;;;4938279;29;20512;-81
2023/01/14 03:01:19;;;;;;;39.80;6.05;;;6.30;99.90;;;;;;4938465;29;20059;-81
2023/01/14 03:04:03;;;;;;;36.22;5.93;;;6.20;99.90;;;;;;4955485;29;20083;-81
2023/01/14 03:06:47;;;;;;;33.40;4.07;;;6.20;99.90;;;;;;4955522;29;20092;-81
2023/01/14 03:09:25;;;;;;;36.58;5.88;;;6.20;99.90;;;;;;4955449;29;20093;-81
2023/01/14 03:12:10;;;;;;;54.50;6.82;;;6.30;99.90;;;;;;4938401;29;20095;-81
2023/01/14 03:14:59;;;;;;;38.38;6.05;;;6.30;99.90;;;;;;4955471;29;20122;-81
2023/01/14 03:17:35;;;;;;;44.80;6.53;;;6.30;99.90;;;;;;4955518;29;20092;-81
2023/01/14 03:20:12;;;;;;;33.88;5.00;;;6.30;99.90;;;;;;4955311;29;20107;-81
2023/01/14 03:22:40;;;;;;;36.10;6.97;;;6.30;99.90;;;;;;4938194;29;20047;-81
2023/01/14 03:25:08;;;;;;;43.40;5.75;;;6.30;99.90;;;;;;4937887;29;20527;-81
2023/01/14 03:27:38;;;;;;;34.03;4.80;;;6.30;99.90;;;;;;4938266;29;20051;-81
2023/01/14 03:30:16;;;;;;;46.00;5.78;;;6.20;99.90;;;;;;4955300;29;20479;-82
2023/01/14 03:32:53;;;;;;;42.83;4.95;;;6.20;99.90;;;;;;4955264;29;20054;-82
2023/01/14 03:35:26;;;;;;;36.20;5.63;;;6.10;99.90;;;;;;4955262;29;20043;-82
2023/01/14 03:37:58;;;;;;;;;;;6.10;99.90;;;;;;4955631;29;20047;-81
2023/01/14 03:40:27;;;;;;;33.95;5.13;;;6.10;99.90;;;;;;4955263;29;19923;-81
2023/01/14 03:42:58;;;;;;;39.85;6.20;;;6.00;99.90;;;;;;4955131;29;20058;-81
2023/01/14 03:45:32;;;;;;;29.17;4.35;;;6.10;99.90;;;;;;4954945;29;20090;-81
2023/01/14 03:47:58;;;;;;;46.20;6.28;;;6.00;99.90;;;;;;4955506;29;20055;-81
2023/01/14 03:50:33;;;;;;;42.67;6.22;;;6.00;99.90;;;;;;4955307;29;20051;-81
2023/01/14 03:53:28;;;;;;;37.95;5.40;;;6.00;99.90;;;;;;4953794;29;20086;-81
2023/01/14 03:56:09;;;;;;;39.28;6.38;;;5.90;99.90;;;;;;4925707;29;20516;-81
2023/01/14 03:58:46;;;;;;;30.33;5.40;;;5.90;99.90;;;;;;4937384;29;20054;-81
2023/01/14 04:01:27;;;;;;;33.35;5.35;;;5.90;99.90;;;;;;4957557;28;20047;-81
2023/01/14 04:03:53;;;;;;;40.25;7.07;;;5.90;99.90;;;;;;4958468;29;20043;-81
2023/01/14 04:06:20;;;;;;;39.42;7.22;;;6.00;99.90;;;;;;4958037;28;20054;-81
2023/01/14 04:08:47;;;;;;;46.85;5.22;;;5.90;99.90;;;;;;4958087;28;20396;-81
2023/01/14 04:11:13;;;;;;;41.15;5.88;;;5.90;99.90;;;;;;4940983;29;20130;-81
2023/01/14 04:16:26;;;;;;;53.47;7.85;;;5.90;99.90;;;;;;4958211;29;20039;-81
2023/01/14 04:18:51;;;;;;;40.38;7.13;;;5.90;99.90;;;;;;4957864;29;20514;-81
2023/01/14 04:21:20;;;;;;;31.23;5.03;;;5.90;99.90;;;;;;4958069;28;20046;-81
2023/01/14 04:23:49;;;;;;;34.58;5.15;;;5.90;99.90;;;;;;4958279;29;20043;-81
2023/01/14 04:26:14;;;;;;;43.45;5.45;;;5.90;99.90;;;;;;4958102;29;20046;-81
2023/01/14 04:28:40;;;;;;;37.42;4.80;;;5.80;99.90;;;;;;4940596;29;20049;-81
2023/01/14 04:31:11;;;;;;;41.00;6.05;;;5.80;99.90;;;;;;4957230;29;20091;-81
2023/01/14 04:33:37;;;;;;;35.80;4.85;;;5.90;99.90;;;;;;4940505;29;20083;-81
2023/01/14 04:36:06;;;;;;;28.00;4.93;;;5.70;99.90;;;;;;4957706;29;20047;-81
2023/01/14 04:38:31;;;;;;;23.58;4.57;;;5.80;99.90;;;;;;4957537;29;20505;-81
2023/01/14 04:40:57;;;;;;;28.17;4.65;;;5.80;99.90;;;;;;4957734;29;20047;-81
2023/01/14 04:43:23;;;;;;;34.45;4.20;;;5.80;99.90;;;;;;4956773;29;20055;-81
2023/01/14 04:45:51;;;;;;;15.35;3.85;;;5.90;99.90;;;;;;4957243;28;20138;-81
2023/01/14 04:48:18;;;;;;;28.40;4.28;;;5.90;99.90;;;;;;4957636;29;20059;-81
2023/01/14 04:50:46;;;;;;;33.20;5.43;;;5.90;99.90;;;;;;4957436;29;20496;-81
2023/01/14 04:53:16;;;;;;;32.50;4.55;;;5.90;99.90;;;;;;4956546;29;20063;-81
2023/01/14 04:55:47;;;;;;;40.00;5.68;;;5.90;99.90;;;;;;4957521;29;20035;-81
2023/01/14 04:58:15;;;;;;;44.92;6.60;;;5.80;99.90;;;;;;4957354;29;20074;-81
2023/01/14 05:00:44;;;;;;;26.13;4.57;;;5.90;99.90;;;;;;4957685;29;20047;-81
2023/01/14 05:03:12;;;;;;;37.03;5.25;;;5.90;99.90;;;;;;4957317;29;20048;-81
2023/01/14 05:05:41;;;;;;;34.30;4.25;;;5.80;99.90;;;;;;4956276;29;20499;-81
2023/01/14 05:08:10;;;;;;;38.13;4.18;;;5.90;99.90;;;;;;4957351;29;20144;-81
2023/01/14 05:10:36;;;;;;;36.42;4.05;;;5.90;99.90;;;;;;4940020;29;20411;-81
2023/01/14 05:13:02;;;;;;;26.98;5.43;;;5.80;99.90;;;;;;4956335;28;20046;-81
2023/01/14 05:15:33;;;;;;;30.27;4.82;;;5.80;99.90;;;;;;4957193;29;20086;-81
2023/01/14 05:18:03;;;;;;;31.65;6.35;;;5.90;99.90;;;;;;4957174;29;20039;-81
2023/01/14 05:20:28;;;;;;;39.05;5.18;;;5.80;99.90;;;;;;4939891;29;20050;-81
2023/01/14 05:23:00;;;;;;;41.15;4.75;;;5.80;99.90;;;;;;4957194;28;20133;-81
2023/01/14 05:25:30;;;;;;;33.10;6.00;;;5.90;99.90;;;;;;4956950;29;20053;-81
2023/01/14 05:27:59;;;;;;;30.77;4.22;;;5.80;99.90;;;;;;4955011;29;20476;-81
2023/01/14 05:30:25;;;;;;;30.85;5.97;;;5.80;99.90;;;;;;4956768;28;20043;-81
2023/01/14 05:32:51;;;;;;;34.28;6.47;;;5.90;99.90;;;;;;4955464;29;20388;-81
2023/01/14 05:35:17;;;;;;;27.33;4.18;;;5.80;99.90;;;;;;4956833;29;20083;-81
2023/01/14 05:37:43;;;;;;;39.90;4.75;;;5.70;99.90;;;;;;4939253;29;20126;-81
2023/01/14 05:40:10;;;;;;;30.95;4.25;;;5.70;99.90;;;;;;4956604;29;20051;-81
2023/01/14 05:45:38;;;;;;;41.80;5.63;;;5.80;99.90;;;;;;4939066;29;20462;-81
2023/01/14 05:48:04;;;;;;;37.63;6.32;;;5.70;99.90;;;;;;4955819;29;20055;-81
2023/01/14 05:50:30;;;;;;;31.73;5.40;;;5.80;99.90;;;;;;4956312;29;20395;-81
2023/01/14 05:52:56;;;;;;;24.63;4.57;;;5.70;99.90;;;;;;4956340;29;20047;-81
2023/01/14 05:55:22;;;;;;;24.48;4.28;;;5.70;99.90;;;;;;4956484;29;20041;-81
2023/01/14 05:58:08;;;;;;;23.90;3.33;;;5.80;99.90;;;;;;4956036;29;20555;-81
2023/01/14 06:06:23;;;;;;;26.38;4.72;;;5.70;99.90;;;;;;4956177;29;20155;-81
2023/01/14 06:08:59;;;;;;;37.20;4.55;;;5.60;99.90;;;;;;4956026;29;20047;-81
2023/01/14 06:11:27;;;;;;;29.95;6.50;;;5.60;99.90;;;;;;4956180;29;20043;-81
2023/01/14 06:13:57;;;;;;;29.55;4.68;;;5.60;99.90;;;;;;4955938;29;20554;-81
2023/01/14 06:16:26;;;;;;;27.40;5.75;;;5.50;99.90;;;;;;4955181;29;20476;-81
2023/01/14 06:18:59;;;;;;;42.72;6.70;;;5.60;99.90;;;;;;4955856;28;20102;-81
2023/01/14 06:21:55;;;;;;;30.08;3.78;;;5.60;99.90;;;;;;4946995;28;20061;-81
2023/01/14 06:24:21;;;;;;;25.10;5.53;;;5.50;99.90;;;;;;4955043;28;20043;-81
2023/01/14 06:26:49;;;;;;;29.77;4.07;;;5.60;99.90;;;;;;4955266;29;20230;-81
2023/01/14 06:29:16;;;;;;;36.50;6.05;;;5.60;99.90;;;;;;4955892;28;20051;-81
2023/01/14 06:31:44;;;;;;;29.15;4.82;;;5.60;99.90;;;;;;4955599;29;20039;-81
2023/01/14 06:34:10;;;;;;;31.75;5.68;;;5.70;99.90;;;;;;4955058;28;20395;-81
2023/01/14 06:36:37;;;;;;;32.63;5.07;;;5.60;99.90;;;;;;4938723;29;20055;-81
2023/01/14 06:39:04;;;;;;;36.10;7.10;;;5.60;99.90;;;;;;4955560;29;20047;-81
2023/01/14 06:41:29;;;;;;;26.38;6.13;;;5.60;99.90;;;;;;4955754;29;20094;-81
2023/01/14 06:43:55;;;;;;;29.08;5.20;;;5.70;99.90;;;;;;4955660;29;20082;-81
2023/01/14 06:46:21;;;;;;;33.65;6.97;;;5.70;99.90;;;;;;4955389;28;20063;-81
2023/01/14 06:48:49;;;;;;;36.03;6.22;;;5.60;99.90;;;;;;4938428;29;20099;-81
2023/01/14 06:54:19;;;;;;;33.53;7.85;;;5.70;99.90;;;;;;4979953;23;20082;-81
2023/01/14 07:00:22;;;;;;;40.65;7.00;;;5.70;99.90;;;;;;4880946;29;20067;-81
2023/01/14 07:02:48;;;;;;;45.03;6.95;;;5.70;99.90;;;;;;4896163;29;20067;-81
2023/01/14 07:05:15;;;;;;;40.25;9.60;;;5.70;99.90;;;;;;4950885;28;20138;-81
2023/01/14 07:07:43;;;;;;;50.78;10.07;;;5.70;99.90;;;;;;4975156;28;20043;-81
2023/01/14 07:10:09;;;;;;;39.70;9.10;;;5.70;99.90;;;;;;4974381;28;20510;-81
2023/01/14 07:12:35;;;;;;;34.83;7.05;;;5.60;99.90;;;;;;4974719;28;20038;-81
2023/01/14 07:15:01;;;;;;;43.65;8.35;;;5.70;99.90;;;;;;4973628;28;20058;-81
2023/01/14 07:17:26;;;;;;;41.72;8.60;;;5.60;99.90;;;;;;4974707;28;20058;-81
2023/01/14 07:19:53;;;;;;;38.53;9.23;;;5.60;99.90;;;;;;4974595;28;20058;-81
2023/01/14 07:22:18;;;;;;;56.63;9.65;;;5.70;99.90;;;;;;4956978;28;20046;-81
2023/01/14 07:24:47;;;;;;;41.50;8.93;;;5.80;99.90;;;;;;4974595;28;20074;-81
2023/01/14 07:27:13;;;;;;;41.60;8.02;;;5.70;99.90;;;;;;4957168;28;20081;-81
2023/01/14 07:29:38;;;;;;;89.75;21.75;;;5.70;99.90;;;;;;4974456;28;20074;-80
2023/01/14 07:32:10;;;;;;;51.63;9.18;;;5.70;99.90;;;;;;4974410;28;20035;-80
2023/01/14 07:34:36;;;;;;;45.22;10.40;;;5.80;99.90;;;;;;4957505;28;20054;-81
2023/01/14 07:37:01;;;;;;;50.00;9.48;;;5.70;99.90;;;;;;4978111;28;20122;-80
2023/01/14 07:39:27;;;;;;;59.42;11.82;;;5.80;99.90;;;;;;5031886;23;20086;-80
2023/01/14 07:41:53;;;;;;;51.40;13.60;;;5.80;99.90;;;;;;4977841;28;20125;-80
2023/01/14 07:44:23;;;;;;;45.85;11.18;;;5.80;99.90;;;;;;4978171;28;20039;-81
2023/01/14 07:46:54;;;;;;;40.15;10.43;;;5.90;99.90;;;;;;4984728;23;20058;-80
2023/01/14 07:49:21;;;;;;;59.03;10.38;;;5.90;99.90;;;;;;4960814;28;20051;-80
2023/01/14 07:51:48;;;;;;;44.10;10.73;;;5.90;99.90;;;;;;4977769;28;20046;-80
2023/01/14 07:54:17;;;;;;;49.13;11.10;;;5.90;99.90;;;;;;4977802;28;20090;-81
2023/01/14 07:56:43;;;;;;;45.50;11.02;;;5.90;99.90;;;;;;4977950;28;20043;-81
2023/01/14 07:59:09;;;;;;;56.95;11.82;;;5.80;99.90;;;;;;4960536;28;20062;-81
2023/01/14 08:01:35;;;;;;;53.40;10.45;;;5.90;99.90;;;;;;4977797;28;20387;-81
2023/01/14 08:04:00;;;;;;;55.13;10.48;;;5.90;99.90;;;;;;4977685;28;20132;-81
2023/01/14 08:06:26;;;;;;;61.80;11.98;;;6.00;99.90;;;;;;4976672;28;20129;-81
2023/01/14 08:08:52;;;;;;;66.25;11.60;;;6.00;99.90;;;;;;4976398;28;20050;-81
2023/01/14 08:11:18;;;;;;;49.67;10.82;;;6.00;99.90;;;;;;4976502;28;20043;-81
2023/01/14 08:13:43;;;;;;;56.60;12.27;;;6.00;99.90;;;;;;4977164;28;20050;-81
2023/01/14 08:16:09;;;;;;;58.28;11.30;;;5.90;99.90;;;;;;5525665;23;20047;-81
2023/01/14 08:18:36;;;;;;;41.13;10.23;;;6.00;99.90;;;;;;4959936;28;20061;-81
2023/01/14 08:21:04;;;;;;;54.00;11.70;;;5.90;99.90;;;;;;4977287;28;20517;-84
2023/01/14 08:23:38;;;;;;;50.30;11.38;;;6.00;99.90;;;;;;4958809;28;20047;-80
2023/01/14 08:26:09;;;;;;;47.03;10.57;;;6.00;99.90;;;;;;4959795;28;20043;-80
2023/01/14 08:28:36;;;;;;;47.10;10.70;;;5.90;99.90;;;;;;4976912;28;20078;-80
2023/01/14 08:31:07;;;;;;;57.67;11.75;;;6.00;99.90;;;;;;4976950;28;20086;-81
2023/01/14 08:33:35;;;;;;;55.00;11.55;;;6.00;99.90;;;;;;4977040;28;20090;-81
2023/01/14 08:36:06;;;;;;;41.35;10.45;;;6.00;99.90;;;;;;4976861;28;20049;-82
2023/01/14 08:38:40;;;;;;;47.83;8.57;;;5.90;99.90;;;;;;4976498;28;20117;-79
2023/01/14 08:41:11;;;;;;;44.08;10.77;;;6.00;99.90;;;;;;4976850;28;20047;-81
2023/01/14 08:43:37;;;;;;;54.00;10.20;;;6.00;99.90;;;;;;4976850;28;20121;-81
2023/01/14 08:46:05;;;;;;;47.63;8.93;;;6.00;99.90;;;;;;4976027;28;20074;-81
2023/01/14 08:48:33;;;;;;;52.17;12.30;;;5.90;99.90;;;;;;4976394;28;20058;-82
2023/01/14 08:51:07;;;;;;;30.98;7.88;;;6.00;99.90;;;;;;4959183;28;20133;-82
2023/01/14 08:53:42;;;;;;;52.08;11.10;;;5.90;99.90;;;;;;4959026;28;20105;-82
2023/01/14 08:56:13;;;;;;;33.45;8.68;;;6.00;99.90;;;;;;4976012;28;20059;-82
2023/01/14 08:58:39;;;;;;;44.05;9.82;;;5.90;99.90;;;;;;4959065;28;20474;-82
2023/01/14 09:01:10;;;;;;;46.75;10.40;;;5.90;99.90;;;;;;4976531;28;20081;-81
2023/01/14 09:03:41;;;;;;;47.40;9.30;;;6.00;99.90;;;;;;4958970;28;20092;-81
2023/01/14 09:06:09;;;;;;;51.42;9.95;;;6.00;99.90;;;;;;4976144;28;20113;-83
2023/01/14 09:19:26;;;;;;;40.42;10.18;;;6.00;99.90;;;;;;4975820;28;20450;-82
2023/01/14 09:21:51;;;;;;;44.03;9.55;;;5.90;99.90;;;;;;4958842;28;20046;-83
2023/01/14 09:24:17;;;;;;;42.40;9.43;;;6.00;99.90;;;;;;4958503;28;20399;-83
2023/01/14 09:26:43;;;;;;;52.05;8.07;;;5.90;99.90;;;;;;4976133;28;20498;-83
2023/01/14 09:29:09;;;;;;;51.60;7.68;;;5.90;99.90;;;;;;4975933;28;20043;-83
2023/01/14 09:31:34;;;;;;;56.38;11.50;;;5.90;99.90;;;;;;4975933;28;20046;-83
2023/01/14 09:34:00;;;;;;;42.35;8.25;;;5.80;99.90;;;;;;4975829;28;20047;-83
2023/01/14 09:36:26;;;;;;;43.00;8.27;;;5.90;99.90;;;;;;4975737;28;20047;-83
2023/01/14 09:38:55;;;;;;;31.17;6.97;;;5.90;99.90;;;;;;4958081;28;20137;-83
2023/01/14 09:41:30;;;;;;;43.17;7.50;;;6.00;99.90;;;;;;4975608;28;20082;-82
2023/01/14 09:43:57;;;;;;;38.38;8.45;;;5.90;99.90;;;;;;4975578;28;20862;-81
2023/01/14 09:46:29;;;;;;;34.90;7.07;;;5.80;99.90;;;;;;4975354;28;20454;-83
2023/01/14 09:48:59;;;;;;;46.42;7.75;;;5.90;99.90;;;;;;4957978;28;20097;-81
2023/01/14 09:51:30;;;;;;;39.50;7.40;;;5.80;99.90;;;;;;4975358;28;20043;-82
2023/01/14 09:54:06;;;;;;;43.90;7.50;;;5.90;99.90;;;;;;4975323;28;20491;-82
2023/01/14 09:56:42;;;;;;;26.00;8.27;;;6.00;99.90;;;;;;4958105;28;20212;-82
2023/01/14 09:59:18;;;;;;;33.25;6.78;;;6.00;99.90;;;;;;4974942;28;20465;-82
2023/01/14 10:01:59;;;;;;;25.98;6.93;;;6.00;99.90;;;;;;4974812;28;20050;-83
2023/01/14 10:05:10;;;;;;;37.92;7.95;;;5.90;99.90;;;;;;4975103;28;20525;-82
2023/01/14 10:07:37;;;;;;;35.75;6.55;;;5.90;99.90;;;;;;4966684;28;20054;-82
2023/01/14 10:10:04;;;;;;;28.73;6.78;;;6.00;99.90;;;;;;4975199;28;20051;-82
2023/01/14 10:12:38;;;;;;;35.53;6.75;;;6.00;99.90;;;;;;4975259;28;20043;-82
2023/01/14 10:15:21;;;;;;;24.50;5.88;;;6.00;99.90;;;;;;5116260;23;20054;-82
2023/01/14 10:17:57;;;;;;;23.65;5.32;;;6.10;99.90;;;;;;4954106;23;20484;-82
2023/01/14 10:20:34;;;;;;;21.05;5.18;;;6.10;99.90;;;;;;4935277;29;20058;-82
2023/01/14 10:23:05;;;;;;;30.45;7.18;;;6.10;99.90;;;;;;4935115;29;20052;-83
2023/01/14 10:25:31;;;;;;;11.10;3.67;;;6.20;99.90;;;;;;4936412;29;20051;-85
2023/01/14 10:27:59;;;;;;;20.60;5.32;;;6.10;99.90;;;;;;4935056;29;20048;-84
2023/01/14 10:30:30;;;;;;;25.35;7.03;;;6.30;99.90;;;;;;4936617;29;20114;-83
2023/01/14 10:32:58;;;;;;;18.55;5.35;;;6.20;99.90;;;;;;4935374;29;20118;-83
2023/01/14 10:35:45;;;;;;;24.13;5.45;;;6.20;99.90;;;;;;4935291;29;20052;-83
2023/01/14 10:38:24;;;;;;;21.52;4.70;;;6.30;99.90;;;;;;4936090;29;20047;-82
2023/01/14 10:40:52;;;;;;;24.13;5.88;;;6.30;99.90;;;;;;4944388;29;20043;-83
2023/01/14 10:43:34;;;;;;;25.33;5.38;;;6.30;99.90;;;;;;4944898;29;20491;-83
2023/01/14 10:46:00;;;;;;;27.15;4.57;;;6.40;99.90;;;;;;4941575;29;20040;-82
2023/01/14 10:48:29;;;;;;;15.80;5.68;;;6.40;99.90;;;;;;4935047;29;20433;-83
2023/01/14 10:51:34;;;;;;;14.23;4.22;;;6.40;99.90;;;;;;4944941;29;20047;-82
2023/01/14 10:54:18;;;;;;;18.13;4.13;;;6.40;99.90;;;;;;4955175;28;20095;-82
2023/01/14 10:56:51;;;;;;;14.38;5.20;;;6.60;99.90;;;;;;4955190;28;20055;-82
2023/01/14 10:59:27;;;;;;;24.15;4.40;;;6.50;99.90;;;;;;4953433;29;20055;-80
2023/01/14 11:01:56;;;;;;;13.27;4.68;;;6.60;99.90;;;;;;4955210;28;20066;-81
2023/01/14 11:04:27;;;;;;;14.50;4.43;;;6.60;99.90;;;;;;4964014;23;20491;-81
2023/01/14 11:06:53;;;;;;;18.83;4.60;;;6.60;99.90;;;;;;4936758;29;20082;-81
2023/01/14 11:14:52;;;;;;;12.45;4.25;;;6.80;99.90;;;;;;4953315;28;20082;-86
2023/01/14 11:17:22;;;;;;;10.70;3.22;;;6.80;99.90;;;;;;4960750;28;20043;-83
2023/01/14 11:19:48;;;;;;;14.75;4.10;;;6.80;99.90;;;;;;4978199;28;20499;-82
2023/01/14 11:22:13;;;;;;;18.50;4.32;;;6.70;99.90;;;;;;4978268;28;20047;-81
2023/01/14 11:24:59;;;;;;;15.35;5.03;;;6.80;99.90;;;;;;4977878;28;20407;-81
2023/01/14 11:27:26;;;;;;;15.23;4.97;;;6.80;99.90;;;;;;4960673;28;20058;-81
2023/01/14 11:29:58;;;;;;;17.17;4.00;;;6.80;99.90;;;;;;4977775;28;20074;-81
2023/01/14 11:32:34;;;;;;;13.68;4.72;;;6.70;99.90;;;;;;4977811;28;20391;-83
2023/01/14 11:35:02;;;;;;;23.13;9.43;;;6.90;99.90;;;;;;4977990;28;20125;-83
2023/01/14 11:37:36;;;;;;;13.23;3.92;;;6.80;99.90;;;;;;4977857;28;20038;-85
2023/01/14 11:40:04;;;;;;;17.25;4.78;;;6.80;99.90;;;;;;4960845;28;20082;-82
2023/01/14 11:42:37;;;;;;;14.75;4.93;;;6.80;99.90;;;;;;4960517;28;20039;-80
2023/01/14 11:45:11;;;;;;;14.55;4.28;;;6.90;99.90;;;;;;4977799;28;20159;-80
2023/01/14 11:47:57;;;;;;;16.25;4.55;;;6.90;99.90;;;;;;4977687;28;20054;-81
2023/01/14 11:50:23;;;;;;;17.63;4.88;;;6.90;99.90;;;;;;4959965;28;20047;-81
2023/01/14 11:53:18;;;;;;;16.48;4.63;;;6.90;99.90;;;;;;4960216;28;20046;-80
2023/01/14 11:55:49;;;;;;;16.17;4.85;;;6.80;99.90;;;;;;4977833;28;20047;-81
2023/01/14 11:58:17;;;;;;;13.73;4.60;;;6.80;99.90;;;;;;4960286;28;20058;-82
2023/01/14 12:00:55;;;;;;;13.02;4.28;;;6.90;99.90;;;;;;4959896;28;20047;-82
2023/01/14 12:03:30;;;;;;;17.90;4.88;;;7.00;99.90;;;;;;4960241;28;20047;-81
2023/01/14 12:06:01;;;;;;;19.75;5.40;;;6.90;99.90;;;;;;4960104;28;20112;-82
2023/01/14 12:08:31;;;;;;;13.30;4.10;;;6.90;99.90;;;;;;4977476;28;20042;-81
2023/01/14 12:11:00;;;;;;;16.85;4.50;;;7.00;99.90;;;;;;4977185;28;20051;-82
2023/01/14 12:19:42;;;;;;;12.50;2.97;;;7.00;99.90;;;;;;4977199;28;20058;-82
2023/01/14 12:22:23;;;;;;;13.13;4.93;;;7.00;99.90;;;;;;4959530;28;20403;-82
2023/01/14 12:24:57;;;;;;;9.93;4.07;;;7.00;99.90;;;;;;4977227;28;20050;-81
2023/01/14 12:27:44;;;;;;;12.23;3.70;;;7.10;99.90;;;;;;4972585;28;20109;-81
2023/01/14 12:30:23;;;;;;;11.73;3.50;;;7.10;99.90;;;;;;4976956;28;20495;-82
2023/01/14 12:33:21;;;;;;;9.93;3.75;;;7.20;99.90;;;;;;4959594;28;20051;-81
2023/01/14 12:36:00;;;;;;;11.95;3.50;;;7.20;99.90;;;;;;4976653;28;20101;-80
2023/01/14 12:47:45;;;;;;;11.63;4.03;;;7.30;99.90;;;;;;4959091;28;20060;-82
2023/01/14 12:50:15;;;;;;;10.27;3.92;;;7.30;99.90;;;;;;4976624;28;20051;-81
2023/01/14 12:52:53;;;;;;;14.15;4.07;;;7.30;99.90;;;;;;4977068;28;20051;-81
2023/01/14 12:55:40;;;;;;;11.98;3.42;;;7.30;99.90;;;;;;4976483;28;20483;-80
2023/01/14 12:58:18;;;;;;;11.70;3.50;;;7.30;99.90;;;;;;4959120;28;20505;-80
2023/01/14 13:01:00;;;;;;;14.07;4.13;;;7.40;99.90;;;;;;4976315;28;20062;-81
2023/01/14 13:03:39;;;;;;;11.23;3.72;;;7.50;99.90;;;;;;4976669;28;20062;-80
2023/01/14 13:06:33;;;;;;;13.43;3.47;;;7.60;99.90;;;;;;4976386;28;20121;-79
2023/01/14 13:08:59;;;;;;;;;;;7.60;99.90;;;;;;4976784;28;20082;-80
2023/01/14 13:11:46;;;;;;;12.48;4.28;;;7.50;99.90;;;;;;4975912;28;19972;-80
2023/01/14 13:14:37;;;;;;;12.77;3.40;;;7.70;99.90;;;;;;4958466;28;20097;-80
2023/01/14 13:17:07;;;;;;;11.43;3.92;;;7.80;99.90;;;;;;4976390;28;20150;-81
2023/01/14 13:19:46;;;;;;;10.30;4.30;;;7.70;99.90;;;;;;4975804;28;20094;-81
2023/01/14 13:22:11;;;;;;;7.57;3.35;;;7.80;99.90;;;;;;4976033;28;20092;-81
2023/01/14 13:25:01;;;;;;;8.20;4.10;;;7.80;99.90;;;;;;4958240;28;20130;-82
2023/01/14 13:27:40;;;;;;;7.45;2.30;;;8.00;99.90;;;;;;4975981;28;20134;-82
2023/01/14 13:30:21;;;;;;;8.52;2.65;;;8.10;99.90;;;;;;4975913;28;20078;-81
2023/01/14 13:32:58;;;;;;;7.47;3.25;;;8.20;99.90;;;;;;4974927;28;20483;-80
2023/01/14 13:35:28;;;;;;;9.70;2.88;;;8.20;99.90;;;;;;4975941;28;20125;-81
2023/01/14 13:37:57;;;;;;;7.00;2.78;;;8.10;99.90;;;;;;4975857;28;20043;-81
2023/01/14 13:40:25;;;;;;;7.72;3.30;;;8.30;99.90;;;;;;4975650;28;20062;-82
2023/01/14 13:45:29;;;;;;;9.52;3.25;;;8.40;99.90;;;;;;5116612;23;20046;-81
2023/01/14 13:47:58;;;;;;;7.95;3.10;;;8.40;99.90;;;;;;4958179;28;20046;-81
2023/01/14 13:50:30;;;;;;;10.75;5.22;;;8.50;99.90;;;;;;4958088;28;20129;-81
2023/01/14 13:53:18;;;;;;;5.68;2.70;;;8.50;99.90;;;;;;4958353;28;20074;-81
2023/01/14 13:55:54;;;;;;;7.47;2.85;;;8.60;99.90;;;;;;4975406;28;20054;-81
2023/01/14 13:58:38;;;;;;;8.32;2.80;;;8.60;99.90;;;;;;4958276;28;20051;-81
2023/01/14 14:01:30;;;;;;;9.68;3.95;;;8.70;99.90;;;;;;4957944;28;20074;-81
2023/01/14 14:04:01;;;;;;;10.30;3.17;;;8.80;99.90;;;;;;4975300;28;20047;-80
2023/01/14 14:06:28;;;;;;;8.88;3.85;;;8.80;99.90;;;;;;4975221;28;20050;-81
2023/01/14 14:09:14;;;;;;;9.10;2.88;;;8.80;99.90;;;;;;4958014;28;20122;-81
2023/01/14 14:12:00;;;;;;;10.07;3.65;;;8.90;99.90;;;;;;4974962;28;20088;-81
2023/01/14 14:14:31;;;;;;;8.98;2.95;;;8.90;99.90;;;;;;4974797;28;20054;-81